MSR741 HECA-LCLK
Flight info
| Callsign | MSR741 |
|---|---|
| Flight time | 1h 4m |
| Altitude | 24000 |
| Route | CVO A16 DEGDI/N0448F380 A16 MELDO N307 LAKTO N71 STEPA/N0444F390 DCT ODELO DCT EMEDA |
| Aircraft | A20N/M-SDE2E3FGHIRWXY/LB1 |
Departure
| Time | 2026-05-05 09:42 |
|---|---|
| Airport | Cairo International Airport (HECA) |
Arrival
| Time | 2026-05-05 10:47 |
|---|---|
| Airport | Larnaca International Airport (LCLK) |
| Time | Latitude | Longitude | Altitude | Speed | Heading |
|---|---|---|---|---|---|
| 2026-05-05 09:09 | 30.10870 | 31.39655 | 374 ft | 0 kts | 256° |
| 2026-05-05 09:28 | 30.10873 | 31.39669 | 374 ft | 4 kts | 256° |
| 2026-05-05 09:28 | 30.10880 | 31.39700 | 374 ft | 4 kts | 255° |
| 2026-05-05 09:29 | 30.10887 | 31.39729 | 374 ft | 3 kts | 246° |
| 2026-05-05 09:29 | 30.10895 | 31.39744 | 374 ft | 2 kts | 206° |
| 2026-05-05 09:29 | 30.10906 | 31.39747 | 374 ft | 2 kts | 167° |
| 2026-05-05 09:29 | 30.10915 | 31.39744 | 374 ft | 0 kts | 163° |
| 2026-05-05 09:32 | 30.10913 | 31.39745 | 374 ft | 2 kts | 163° |
| 2026-05-05 09:33 | 30.10870 | 31.39756 | 374 ft | 10 kts | 169° |
| 2026-05-05 09:33 | 30.10789 | 31.39780 | 374 ft | 14 kts | 164° |
| 2026-05-05 09:33 | 30.10699 | 31.39808 | 374 ft | 14 kts | 166° |
| 2026-05-05 09:33 | 30.10598 | 31.39837 | 374 ft | 13 kts | 166° |
| 2026-05-05 09:34 | 30.10509 | 31.39871 | 374 ft | 10 kts | 140° |
| 2026-05-05 09:34 | 30.10494 | 31.39957 | 374 ft | 13 kts | 71° |
| 2026-05-05 09:34 | 30.10557 | 31.40052 | 374 ft | 17 kts | 48° |
| 2026-05-05 09:34 | 30.10640 | 31.40163 | 374 ft | 20 kts | 49° |
| 2026-05-05 09:35 | 30.10705 | 31.40262 | 374 ft | 15 kts | 74° |
| 2026-05-05 09:35 | 30.10760 | 31.40481 | 374 ft | 18 kts | 50° |
| 2026-05-05 09:35 | 30.10848 | 31.40599 | 374 ft | 21 kts | 49° |
| 2026-05-05 09:36 | 30.10949 | 31.40733 | 374 ft | 24 kts | 48° |
| 2026-05-05 09:36 | 30.11061 | 31.40876 | 374 ft | 19 kts | 49° |
| 2026-05-05 09:36 | 30.11156 | 31.41004 | 374 ft | 22 kts | 49° |
| 2026-05-05 09:36 | 30.11263 | 31.41149 | 374 ft | 25 kts | 49° |
| 2026-05-05 09:37 | 30.11376 | 31.41299 | 374 ft | 19 kts | 48° |
| 2026-05-05 09:37 | 30.11469 | 31.41424 | 374 ft | 22 kts | 49° |
| 2026-05-05 09:37 | 30.11577 | 31.41564 | 374 ft | 25 kts | 48° |
| 2026-05-05 09:37 | 30.11661 | 31.41680 | 374 ft | 16 kts | 49° |
| 2026-05-05 09:38 | 30.11740 | 31.41785 | 374 ft | 19 kts | 49° |
| 2026-05-05 09:38 | 30.11833 | 31.41910 | 374 ft | 22 kts | 49° |
| 2026-05-05 09:38 | 30.11938 | 31.42052 | 374 ft | 25 kts | 49° |
| 2026-05-05 09:38 | 30.12057 | 31.42209 | 374 ft | 27 kts | 49° |
| 2026-05-05 09:39 | 30.12184 | 31.42382 | 374 ft | 29 kts | 49° |
| 2026-05-05 09:39 | 30.12301 | 31.42540 | 374 ft | 23 kts | 47° |
| 2026-05-05 09:39 | 30.12417 | 31.42690 | 374 ft | 26 kts | 48° |
| 2026-05-05 09:39 | 30.12472 | 31.42795 | 374 ft | 16 kts | 79° |
| 2026-05-05 09:40 | 30.12439 | 31.42905 | 374 ft | 0 kts | 138° |
| 2026-05-05 09:40 | 30.12432 | 31.42912 | 374 ft | 3 kts | 138° |
| 2026-05-05 09:41 | 30.12399 | 31.42932 | 374 ft | 7 kts | 168° |
| 2026-05-05 09:41 | 30.12334 | 31.42924 | 374 ft | 11 kts | 187° |
| 2026-05-05 09:41 | 30.12272 | 31.42884 | 374 ft | 0 kts | 229° |
| 2026-05-05 09:41 | 30.12267 | 31.42877 | 374 ft | 3 kts | 229° |
| 2026-05-05 09:42 | 30.12176 | 31.42757 | 374 ft | 57 kts | 229° |
| 2026-05-05 09:42 | 30.11709 | 31.42139 | 374 ft | 142 kts | 229° |
| 2026-05-05 09:42 | 30.10951 | 31.41125 | 734 ft | 179 kts | 230° |
| 2026-05-05 09:42 | 30.10093 | 31.40029 | 1593 ft | 193 kts | 232° |
| 2026-05-05 09:43 | 30.09184 | 31.38860 | 2500 ft | 181 kts | 232° |
| 2026-05-05 09:43 | 30.08411 | 31.37789 | 3081 ft | 178 kts | 234° |
| 2026-05-05 09:43 | 30.07599 | 31.36579 | 3558 ft | 204 kts | 235° |
| 2026-05-05 09:43 | 30.06570 | 31.35138 | 3849 ft | 249 kts | 232° |
| 2026-05-05 09:44 | 30.05820 | 31.34122 | 3948 ft | 259 kts | 232° |
| 2026-05-05 09:44 | 30.04858 | 31.32820 | 4000 ft | 261 kts | 232° |
| 2026-05-05 09:44 | 30.03676 | 31.31220 | 3997 ft | 261 kts | 233° |
| 2026-05-05 09:44 | 30.02779 | 31.29459 | 3989 ft | 258 kts | 255° |
| 2026-05-05 09:45 | 30.02651 | 31.27400 | 4126 ft | 256 kts | 283° |
| 2026-05-05 09:45 | 30.03430 | 31.25576 | 4834 ft | 258 kts | 312° |
| 2026-05-05 09:45 | 30.04889 | 31.24412 | 6065 ft | 257 kts | 339° |
| 2026-05-05 09:45 | 30.06671 | 31.24144 | 7109 ft | 265 kts | 4° |
| 2026-05-05 09:46 | 30.08515 | 31.24463 | 8180 ft | 270 kts | 7° |
| 2026-05-05 09:46 | 30.10374 | 31.24860 | 9243 ft | 274 kts | 8° |
| 2026-05-05 09:46 | 30.12268 | 31.25269 | 10290 ft | 279 kts | 7° |
| 2026-05-05 09:46 | 30.14239 | 31.25678 | 10854 ft | 300 kts | 7° |
| 2026-05-05 09:47 | 30.16385 | 31.26104 | 11250 ft | 325 kts | 6° |
| 2026-05-05 09:47 | 30.18667 | 31.26552 | 11829 ft | 336 kts | 6° |
| 2026-05-05 09:47 | 30.20995 | 31.27010 | 12663 ft | 341 kts | 6° |
| 2026-05-05 09:47 | 30.23348 | 31.27473 | 13586 ft | 346 kts | 6° |
| 2026-05-05 09:48 | 30.25742 | 31.27943 | 14398 ft | 352 kts | 5° |
| 2026-05-05 09:48 | 30.28170 | 31.28418 | 15176 ft | 356 kts | 5° |
| 2026-05-05 09:48 | 30.30631 | 31.28900 | 15962 ft | 361 kts | 4° |
| 2026-05-05 09:48 | 30.33208 | 31.29405 | 16760 ft | 366 kts | 4° |
| 2026-05-05 09:49 | 30.35753 | 31.29903 | 17544 ft | 371 kts | 3° |
| 2026-05-05 09:49 | 30.37482 | 31.30242 | 18057 ft | 374 kts | 3° |
| 2026-05-05 09:49 | 30.40090 | 31.30753 | 18771 ft | 378 kts | 3° |
| 2026-05-05 09:49 | 30.42705 | 31.31265 | 19486 ft | 381 kts | 3° |
| 2026-05-05 09:50 | 30.45331 | 31.31655 | 20175 ft | 379 kts | 357° |
| 2026-05-05 09:50 | 30.47955 | 31.31662 | 20865 ft | 377 kts | 349° |
| 2026-05-05 09:50 | 30.50551 | 31.31298 | 21550 ft | 376 kts | 344° |
| 2026-05-05 09:50 | 30.53143 | 31.30804 | 22231 ft | 379 kts | 344° |
| 2026-05-05 09:51 | 30.55760 | 31.30321 | 22921 ft | 382 kts | 344° |
| 2026-05-05 09:51 | 30.58394 | 31.29838 | 23602 ft | 385 kts | 344° |
| 2026-05-05 09:51 | 30.61060 | 31.29350 | 23938 ft | 388 kts | 344° |
| 2026-05-05 09:51 | 30.63724 | 31.28862 | 24051 ft | 388 kts | 344° |
| 2026-05-05 09:52 | 30.66397 | 31.28371 | 24078 ft | 388 kts | 344° |
| 2026-05-05 09:52 | 30.69029 | 31.27876 | 24076 ft | 386 kts | 342° |
| 2026-05-05 09:52 | 30.71672 | 31.27177 | 24078 ft | 382 kts | 338° |
| 2026-05-05 09:52 | 30.74251 | 31.26297 | 24079 ft | 381 kts | 337° |
| 2026-05-05 09:53 | 30.76787 | 31.25414 | 24079 ft | 380 kts | 337° |
| 2026-05-05 09:53 | 30.79331 | 31.24526 | 24077 ft | 381 kts | 337° |
| 2026-05-05 09:53 | 30.81923 | 31.23800 | 24079 ft | 389 kts | 347° |
| 2026-05-05 09:53 | 30.84668 | 31.23740 | 24081 ft | 398 kts | 354° |
| 2026-05-05 09:54 | 30.87434 | 31.23809 | 24081 ft | 396 kts | 353° |
| 2026-05-05 09:54 | 30.90173 | 31.23693 | 24081 ft | 393 kts | 349° |
| 2026-05-05 09:54 | 30.92884 | 31.23389 | 24076 ft | 391 kts | 346° |
| 2026-05-05 09:54 | 30.95543 | 31.22971 | 24080 ft | 390 kts | 345° |
| 2026-05-05 09:55 | 30.98222 | 31.22491 | 24080 ft | 390 kts | 345° |
| 2026-05-05 09:55 | 31.00900 | 31.21988 | 24081 ft | 390 kts | 345° |
| 2026-05-05 09:55 | 31.03611 | 31.21475 | 24076 ft | 390 kts | 345° |
| 2026-05-05 09:55 | 31.06297 | 31.20970 | 24079 ft | 390 kts | 345° |
| 2026-05-05 09:56 | 31.08982 | 31.20466 | 24083 ft | 391 kts | 345° |
| 2026-05-05 09:56 | 31.11668 | 31.19963 | 24080 ft | 391 kts | 345° |
| 2026-05-05 09:56 | 31.14362 | 31.19461 | 24078 ft | 392 kts | 345° |
| 2026-05-05 09:56 | 31.17056 | 31.18958 | 24077 ft | 393 kts | 345° |
| 2026-05-05 09:57 | 31.19761 | 31.18454 | 24082 ft | 393 kts | 345° |
| 2026-05-05 09:57 | 31.22461 | 31.17950 | 24085 ft | 393 kts | 345° |
| 2026-05-05 09:57 | 31.25173 | 31.17443 | 24082 ft | 394 kts | 346° |
| 2026-05-05 09:57 | 31.27889 | 31.16935 | 24085 ft | 395 kts | 346° |
| 2026-05-05 09:58 | 31.30609 | 31.16426 | 24084 ft | 396 kts | 346° |
| 2026-05-05 09:58 | 31.33328 | 31.15917 | 24079 ft | 396 kts | 346° |
| 2026-05-05 09:58 | 31.36049 | 31.15407 | 24082 ft | 396 kts | 346° |
| 2026-05-05 09:58 | 31.38774 | 31.14896 | 24080 ft | 397 kts | 346° |
| 2026-05-05 09:59 | 31.41507 | 31.14383 | 24088 ft | 398 kts | 346° |
| 2026-05-05 09:59 | 31.44246 | 31.13870 | 24085 ft | 398 kts | 346° |
| 2026-05-05 09:59 | 31.46982 | 31.13356 | 24090 ft | 398 kts | 346° |
| 2026-05-05 09:59 | 31.49722 | 31.12841 | 24086 ft | 399 kts | 346° |
| 2026-05-05 10:00 | 31.52464 | 31.12327 | 24082 ft | 400 kts | 347° |
| 2026-05-05 10:00 | 31.55240 | 31.11989 | 24082 ft | 402 kts | 351° |
| 2026-05-05 10:00 | 31.58029 | 31.11698 | 24090 ft | 402 kts | 350° |
| 2026-05-05 10:00 | 31.60817 | 31.11401 | 24088 ft | 403 kts | 350° |
| 2026-05-05 10:01 | 31.63620 | 31.11100 | 24090 ft | 403 kts | 351° |
| 2026-05-05 10:01 | 31.66128 | 31.10831 | 24087 ft | 403 kts | 351° |
| 2026-05-05 10:01 | 31.68926 | 31.10530 | 24086 ft | 404 kts | 351° |
| 2026-05-05 10:01 | 31.71719 | 31.10231 | 24087 ft | 404 kts | 351° |
| 2026-05-05 10:02 | 31.74520 | 31.09931 | 24089 ft | 404 kts | 351° |
| 2026-05-05 10:02 | 31.77323 | 31.09630 | 24085 ft | 404 kts | 351° |
| 2026-05-05 10:02 | 31.80120 | 31.09330 | 24084 ft | 404 kts | 351° |
| 2026-05-05 10:02 | 31.82924 | 31.09029 | 24084 ft | 404 kts | 351° |
| 2026-05-05 10:03 | 31.85725 | 31.08728 | 24085 ft | 404 kts | 351° |
| 2026-05-05 10:03 | 31.88496 | 31.08430 | 24086 ft | 404 kts | 351° |
| 2026-05-05 10:03 | 31.91295 | 31.08129 | 24076 ft | 404 kts | 351° |
| 2026-05-05 10:03 | 31.94103 | 31.07827 | 24084 ft | 404 kts | 351° |
| 2026-05-05 10:04 | 31.96900 | 31.07526 | 24084 ft | 403 kts | 351° |
| 2026-05-05 10:04 | 31.99719 | 31.07569 | 24083 ft | 410 kts | 4° |
| 2026-05-05 10:04 | 32.02484 | 31.08477 | 24088 ft | 418 kts | 19° |
| 2026-05-05 10:04 | 32.05009 | 31.10222 | 24080 ft | 425 kts | 34° |
| 2026-05-05 10:05 | 32.07109 | 31.12697 | 24081 ft | 431 kts | 49° |
| 2026-05-05 10:05 | 32.08864 | 31.15584 | 24080 ft | 433 kts | 53° |
| 2026-05-05 10:05 | 32.10538 | 31.18545 | 24081 ft | 433 kts | 53° |
| 2026-05-05 10:05 | 32.12212 | 31.21501 | 24074 ft | 433 kts | 53° |
| 2026-05-05 10:06 | 32.13909 | 31.24439 | 24078 ft | 433 kts | 52° |
| 2026-05-05 10:06 | 32.15623 | 31.27360 | 24070 ft | 433 kts | 52° |
| 2026-05-05 10:06 | 32.17354 | 31.30284 | 24073 ft | 433 kts | 51° |
| 2026-05-05 10:06 | 32.19087 | 31.33198 | 24070 ft | 433 kts | 51° |
| 2026-05-05 10:07 | 32.20817 | 31.36106 | 24070 ft | 433 kts | 51° |
| 2026-05-05 10:07 | 32.22547 | 31.39017 | 24070 ft | 433 kts | 51° |
| 2026-05-05 10:07 | 32.24278 | 31.41930 | 24071 ft | 433 kts | 51° |
| 2026-05-05 10:07 | 32.26004 | 31.44840 | 24070 ft | 433 kts | 51° |
| 2026-05-05 10:08 | 32.27735 | 31.47759 | 24066 ft | 433 kts | 51° |
| 2026-05-05 10:08 | 32.29461 | 31.50675 | 24069 ft | 433 kts | 51° |
| 2026-05-05 10:08 | 32.31186 | 31.53590 | 24064 ft | 433 kts | 51° |
| 2026-05-05 10:08 | 32.32916 | 31.56515 | 24063 ft | 433 kts | 51° |
| 2026-05-05 10:09 | 32.34640 | 31.59434 | 24062 ft | 433 kts | 51° |
| 2026-05-05 10:09 | 32.36367 | 31.62359 | 24063 ft | 433 kts | 51° |
| 2026-05-05 10:09 | 32.38089 | 31.65279 | 24063 ft | 433 kts | 51° |
| 2026-05-05 10:09 | 32.39814 | 31.68204 | 24060 ft | 433 kts | 51° |
| 2026-05-05 10:10 | 32.41538 | 31.71130 | 24059 ft | 433 kts | 51° |
| 2026-05-05 10:10 | 32.43262 | 31.74061 | 24059 ft | 434 kts | 51° |
| 2026-05-05 10:10 | 32.44987 | 31.76993 | 24056 ft | 434 kts | 51° |
| 2026-05-05 10:10 | 32.46708 | 31.79922 | 24058 ft | 434 kts | 51° |
| 2026-05-05 10:11 | 32.48434 | 31.82860 | 24054 ft | 434 kts | 51° |
| 2026-05-05 10:11 | 32.50156 | 31.85795 | 24054 ft | 434 kts | 51° |
| 2026-05-05 10:11 | 32.51876 | 31.88729 | 24052 ft | 434 kts | 51° |
| 2026-05-05 10:11 | 32.53595 | 31.91663 | 24049 ft | 434 kts | 51° |
| 2026-05-05 10:12 | 32.55312 | 31.94597 | 24051 ft | 434 kts | 51° |
| 2026-05-05 10:12 | 32.57038 | 31.97546 | 24051 ft | 434 kts | 51° |
| 2026-05-05 10:12 | 32.58753 | 32.00481 | 24050 ft | 434 kts | 51° |
| 2026-05-05 10:12 | 32.60474 | 32.03428 | 24049 ft | 434 kts | 51° |
| 2026-05-05 10:13 | 32.62188 | 32.06365 | 24053 ft | 434 kts | 51° |
| 2026-05-05 10:13 | 32.63906 | 32.09309 | 24046 ft | 433 kts | 51° |
| 2026-05-05 10:13 | 32.65619 | 32.12237 | 24048 ft | 434 kts | 50° |
| 2026-05-05 10:13 | 32.67350 | 32.15194 | 24043 ft | 434 kts | 50° |
| 2026-05-05 10:14 | 32.69072 | 32.18134 | 24045 ft | 433 kts | 50° |
| 2026-05-05 10:14 | 32.70788 | 32.21069 | 24045 ft | 434 kts | 50° |
| 2026-05-05 10:14 | 32.72506 | 32.24009 | 24031 ft | 434 kts | 50° |
| 2026-05-05 10:14 | 32.74230 | 32.26964 | 24044 ft | 434 kts | 50° |
| 2026-05-05 10:15 | 32.75929 | 32.29878 | 24044 ft | 434 kts | 50° |
| 2026-05-05 10:15 | 32.77647 | 32.32828 | 24034 ft | 434 kts | 50° |
| 2026-05-05 10:15 | 32.79366 | 32.35780 | 24046 ft | 434 kts | 50° |
| 2026-05-05 10:15 | 32.81106 | 32.38709 | 24027 ft | 432 kts | 47° |
| 2026-05-05 10:16 | 32.83075 | 32.41361 | 24027 ft | 427 kts | 39° |
| 2026-05-05 10:16 | 32.84523 | 32.43013 | 24038 ft | 426 kts | 38° |
| 2026-05-05 10:16 | 32.86658 | 32.45458 | 24028 ft | 426 kts | 39° |
| 2026-05-05 10:16 | 32.88794 | 32.47916 | 24034 ft | 426 kts | 39° |
| 2026-05-05 10:17 | 32.90923 | 32.50373 | 24030 ft | 426 kts | 39° |
| 2026-05-05 10:17 | 32.93049 | 32.52829 | 24030 ft | 426 kts | 39° |
| 2026-05-05 10:17 | 32.95184 | 32.55294 | 24029 ft | 426 kts | 39° |
| 2026-05-05 10:17 | 32.97315 | 32.57755 | 24024 ft | 426 kts | 39° |
| 2026-05-05 10:18 | 32.99447 | 32.60220 | 24025 ft | 426 kts | 39° |
| 2026-05-05 10:18 | 33.01572 | 32.62679 | 24028 ft | 426 kts | 39° |
| 2026-05-05 10:18 | 33.03700 | 32.65141 | 24026 ft | 426 kts | 39° |
| 2026-05-05 10:18 | 33.05695 | 32.67452 | 24025 ft | 426 kts | 39° |
| 2026-05-05 10:19 | 33.07821 | 32.69916 | 24027 ft | 426 kts | 38° |
| 2026-05-05 10:19 | 33.09941 | 32.72376 | 24018 ft | 426 kts | 38° |
| 2026-05-05 10:19 | 33.12062 | 32.74838 | 24020 ft | 426 kts | 38° |
| 2026-05-05 10:19 | 33.14189 | 32.77307 | 24020 ft | 426 kts | 38° |
| 2026-05-05 10:20 | 33.16311 | 32.79774 | 24022 ft | 426 kts | 38° |
| 2026-05-05 10:20 | 33.18430 | 32.82239 | 24022 ft | 426 kts | 38° |
| 2026-05-05 10:20 | 33.20550 | 32.84707 | 24015 ft | 426 kts | 38° |
| 2026-05-05 10:20 | 33.22670 | 32.87176 | 24020 ft | 426 kts | 38° |
| 2026-05-05 10:21 | 33.24788 | 32.89645 | 24013 ft | 425 kts | 38° |
| 2026-05-05 10:21 | 33.26910 | 32.92121 | 24018 ft | 426 kts | 38° |
| 2026-05-05 10:21 | 33.29022 | 32.94587 | 24017 ft | 425 kts | 38° |
| 2026-05-05 10:21 | 33.31143 | 32.97064 | 24017 ft | 425 kts | 38° |
| 2026-05-05 10:22 | 33.33263 | 32.99542 | 24017 ft | 425 kts | 38° |
| 2026-05-05 10:22 | 33.35407 | 33.02050 | 24012 ft | 425 kts | 38° |
| 2026-05-05 10:22 | 33.37520 | 33.04524 | 24010 ft | 426 kts | 38° |
| 2026-05-05 10:22 | 33.39636 | 33.07003 | 24013 ft | 425 kts | 38° |
| 2026-05-05 10:23 | 33.41750 | 33.09483 | 24007 ft | 425 kts | 38° |
| 2026-05-05 10:23 | 33.43863 | 33.11962 | 24009 ft | 425 kts | 38° |
| 2026-05-05 10:23 | 33.45974 | 33.14439 | 24007 ft | 425 kts | 38° |
| 2026-05-05 10:23 | 33.48083 | 33.16917 | 24009 ft | 425 kts | 38° |
| 2026-05-05 10:24 | 33.50192 | 33.19397 | 24007 ft | 425 kts | 38° |
| 2026-05-05 10:24 | 33.52310 | 33.21890 | 24009 ft | 425 kts | 38° |
| 2026-05-05 10:24 | 33.54390 | 33.24339 | 24007 ft | 425 kts | 38° |
| 2026-05-05 10:24 | 33.56496 | 33.26821 | 24009 ft | 425 kts | 38° |
| 2026-05-05 10:25 | 33.58605 | 33.29307 | 24009 ft | 425 kts | 38° |
| 2026-05-05 10:25 | 33.60716 | 33.31799 | 24007 ft | 425 kts | 37° |
| 2026-05-05 10:25 | 33.62824 | 33.34288 | 24006 ft | 425 kts | 37° |
| 2026-05-05 10:25 | 33.65003 | 33.36635 | 23988 ft | 419 kts | 30° |
| 2026-05-05 10:26 | 33.67390 | 33.38582 | 23796 ft | 410 kts | 22° |
| 2026-05-05 10:26 | 33.69914 | 33.40096 | 23570 ft | 400 kts | 15° |
| 2026-05-05 10:26 | 33.72472 | 33.41380 | 23306 ft | 398 kts | 15° |
| 2026-05-05 10:26 | 33.75016 | 33.42671 | 23038 ft | 396 kts | 15° |
| 2026-05-05 10:27 | 33.77549 | 33.43964 | 22773 ft | 395 kts | 15° |
| 2026-05-05 10:27 | 33.80076 | 33.45256 | 22511 ft | 394 kts | 15° |
| 2026-05-05 10:27 | 33.82595 | 33.46545 | 22246 ft | 392 kts | 15° |
| 2026-05-05 10:27 | 33.85073 | 33.47813 | 21981 ft | 391 kts | 15° |
| 2026-05-05 10:28 | 33.87576 | 33.49093 | 21731 ft | 389 kts | 15° |
| 2026-05-05 10:28 | 33.90070 | 33.50368 | 21247 ft | 390 kts | 15° |
| 2026-05-05 10:28 | 33.92559 | 33.51643 | 20709 ft | 387 kts | 15° |
| 2026-05-05 10:28 | 33.95027 | 33.52910 | 20177 ft | 382 kts | 15° |
| 2026-05-05 10:29 | 33.97460 | 33.54160 | 19652 ft | 378 kts | 15° |
| 2026-05-05 10:29 | 33.99865 | 33.55396 | 19131 ft | 374 kts | 14° |
| 2026-05-05 10:29 | 34.02215 | 33.56602 | 18596 ft | 371 kts | 14° |
| 2026-05-05 10:29 | 34.04576 | 33.57814 | 18048 ft | 368 kts | 14° |
| 2026-05-05 10:30 | 34.06947 | 33.59032 | 17550 ft | 362 kts | 14° |
| 2026-05-05 10:30 | 34.09248 | 33.60214 | 17040 ft | 357 kts | 14° |
| 2026-05-05 10:30 | 34.11525 | 33.61384 | 16557 ft | 353 kts | 15° |
| 2026-05-05 10:30 | 34.13775 | 33.62540 | 16053 ft | 349 kts | 15° |
| 2026-05-05 10:31 | 34.15996 | 33.63680 | 15578 ft | 345 kts | 15° |
| 2026-05-05 10:31 | 34.18196 | 33.64812 | 15101 ft | 342 kts | 15° |
| 2026-05-05 10:31 | 34.20345 | 33.65917 | 14633 ft | 338 kts | 16° |
| 2026-05-05 10:31 | 34.22502 | 33.67027 | 14164 ft | 335 kts | 16° |
| 2026-05-05 10:32 | 34.24643 | 33.68130 | 13689 ft | 332 kts | 17° |
| 2026-05-05 10:32 | 34.26761 | 33.69222 | 13210 ft | 329 kts | 17° |
| 2026-05-05 10:32 | 34.28849 | 33.70301 | 12762 ft | 324 kts | 17° |
| 2026-05-05 10:32 | 34.30909 | 33.71366 | 12313 ft | 320 kts | 17° |
| 2026-05-05 10:33 | 34.32965 | 33.72428 | 11857 ft | 330 kts | 18° |
| 2026-05-05 10:33 | 34.35197 | 33.73566 | 11388 ft | 360 kts | 18° |
| 2026-05-05 10:33 | 34.37544 | 33.74773 | 10894 ft | 371 kts | 19° |
| 2026-05-05 10:33 | 34.39762 | 33.75928 | 10693 ft | 364 kts | 19° |
| 2026-05-05 10:34 | 34.42053 | 33.77125 | 10430 ft | 352 kts | 19° |
| 2026-05-05 10:34 | 34.44259 | 33.78280 | 10274 ft | 337 kts | 19° |
| 2026-05-05 10:34 | 34.46373 | 33.79365 | 10131 ft | 321 kts | 15° |
| 2026-05-05 10:34 | 34.48487 | 33.79786 | 10000 ft | 299 kts | 354° |
| 2026-05-05 10:35 | 34.50462 | 33.79319 | 9736 ft | 284 kts | 336° |
| 2026-05-05 10:35 | 34.52310 | 33.78492 | 9287 ft | 282 kts | 336° |
| 2026-05-05 10:35 | 34.54145 | 33.77660 | 8849 ft | 280 kts | 336° |
| 2026-05-05 10:35 | 34.55965 | 33.76837 | 8406 ft | 279 kts | 336° |
| 2026-05-05 10:36 | 34.57766 | 33.76027 | 8071 ft | 274 kts | 336° |
| 2026-05-05 10:36 | 34.59542 | 33.75232 | 7740 ft | 269 kts | 336° |
| 2026-05-05 10:36 | 34.61293 | 33.74497 | 7420 ft | 265 kts | 343° |
| 2026-05-05 10:36 | 34.63123 | 33.74306 | 7108 ft | 265 kts | 1° |
| 2026-05-05 10:37 | 34.64921 | 33.74746 | 6799 ft | 263 kts | 11° |
| 2026-05-05 10:37 | 34.66688 | 33.75295 | 6475 ft | 260 kts | 11° |
| 2026-05-05 10:37 | 34.68432 | 33.75824 | 6157 ft | 257 kts | 11° |
| 2026-05-05 10:37 | 34.70157 | 33.76343 | 5850 ft | 254 kts | 11° |
| 2026-05-05 10:38 | 34.71864 | 33.76854 | 5546 ft | 251 kts | 11° |
| 2026-05-05 10:38 | 34.73551 | 33.77360 | 5240 ft | 248 kts | 11° |
| 2026-05-05 10:38 | 34.75223 | 33.77862 | 4947 ft | 247 kts | 12° |
| 2026-05-05 10:38 | 34.76996 | 33.78391 | 4627 ft | 280 kts | 12° |
| 2026-05-05 10:39 | 34.78928 | 33.78968 | 4537 ft | 287 kts | 12° |
| 2026-05-05 10:39 | 34.80846 | 33.79547 | 4481 ft | 280 kts | 12° |
| 2026-05-05 10:39 | 34.82704 | 33.80111 | 4323 ft | 271 kts | 12° |
| 2026-05-05 10:39 | 34.84523 | 33.80662 | 4005 ft | 266 kts | 12° |
| 2026-05-05 10:40 | 34.86278 | 33.81192 | 3896 ft | 254 kts | 12° |
| 2026-05-05 10:40 | 34.87957 | 33.81700 | 3789 ft | 243 kts | 12° |
| 2026-05-05 10:40 | 34.89561 | 33.82185 | 3705 ft | 231 kts | 12° |
| 2026-05-05 10:40 | 34.91087 | 33.82645 | 3608 ft | 221 kts | 12° |
| 2026-05-05 10:41 | 34.92568 | 33.83042 | 3456 ft | 210 kts | 4° |
| 2026-05-05 10:41 | 34.93972 | 33.82991 | 3094 ft | 200 kts | 347° |
| 2026-05-05 10:41 | 34.95271 | 33.82425 | 2546 ft | 201 kts | 330° |
| 2026-05-05 10:41 | 34.96349 | 33.81415 | 2294 ft | 183 kts | 313° |
| 2026-05-05 10:42 | 34.97484 | 33.79065 | 2008 ft | 146 kts | 287° |
| 2026-05-05 10:42 | 34.97675 | 33.77884 | 1769 ft | 140 kts | 276° |
| 2026-05-05 10:42 | 34.97661 | 33.76696 | 1522 ft | 137 kts | 264° |
| 2026-05-05 10:43 | 34.97452 | 33.75584 | 1529 ft | 141 kts | 253° |
| 2026-05-05 10:43 | 34.97030 | 33.74510 | 1502 ft | 141 kts | 238° |
| 2026-05-05 10:43 | 34.96425 | 33.73553 | 1499 ft | 142 kts | 230° |
| 2026-05-05 10:43 | 34.95756 | 33.72681 | 1513 ft | 138 kts | 227° |
| 2026-05-05 10:44 | 34.95113 | 33.71885 | 1504 ft | 128 kts | 227° |
| 2026-05-05 10:44 | 34.94478 | 33.71103 | 1510 ft | 129 kts | 227° |
| 2026-05-05 10:44 | 34.93841 | 33.70321 | 1474 ft | 130 kts | 226° |
| 2026-05-05 10:44 | 34.93203 | 33.69539 | 1320 ft | 129 kts | 226° |
| 2026-05-05 10:45 | 34.92573 | 33.68766 | 1162 ft | 127 kts | 226° |
| 2026-05-05 10:45 | 34.91945 | 33.67997 | 1015 ft | 128 kts | 226° |
| 2026-05-05 10:45 | 34.91324 | 33.67235 | 848 ft | 126 kts | 225° |
| 2026-05-05 10:45 | 34.90712 | 33.66485 | 700 ft | 125 kts | 224° |
| 2026-05-05 10:46 | 34.90110 | 33.65745 | 545 ft | 120 kts | 224° |
| 2026-05-05 10:46 | 34.89521 | 33.65016 | 389 ft | 123 kts | 225° |
| 2026-05-05 10:46 | 34.88922 | 33.64264 | 215 ft | 119 kts | 224° |
| 2026-05-05 10:46 | 34.88330 | 33.63543 | 51 ft | 120 kts | 220° |
| 2026-05-05 10:47 | 34.87739 | 33.62846 | 19 ft | 104 kts | 226° |
| 2026-05-05 10:47 | 34.87430 | 33.62456 | 17 ft | 39 kts | 223° |
| 2026-05-05 10:47 | 34.87244 | 33.62232 | 18 ft | 37 kts | 225° |
| 2026-05-05 10:47 | 34.87069 | 33.62018 | 19 ft | 34 kts | 230° |
| 2026-05-05 10:48 | 34.86978 | 33.61818 | 19 ft | 12 kts | 251° |
| 2026-05-05 10:48 | 34.86950 | 33.61706 | 19 ft | 16 kts | 253° |
| 2026-05-05 10:48 | 34.86916 | 33.61556 | 18 ft | 20 kts | 254° |
| 2026-05-05 10:48 | 34.86891 | 33.61452 | 18 ft | 11 kts | 249° |
| 2026-05-05 10:49 | 34.86903 | 33.61355 | 18 ft | 14 kts | 310° |
| 2026-05-05 10:49 | 34.86982 | 33.61261 | 18 ft | 13 kts | 315° |
| 2026-05-05 10:49 | 34.86974 | 33.61173 | 18 ft | 13 kts | 219° |
| 2026-05-05 10:49 | 34.86947 | 33.61138 | 20 ft | 0 kts | 231° |